sensor_id;sensor_type;location;lat;lon;timestamp;P1;durP1;ratioP1;P2;durP2;ratioP2
5416;SDS011;2731;50.754;12.990;2023-08-06T00:00:22;4.68;;;4.28;;
5416;SDS011;2731;50.754;12.990;2023-08-06T00:02:50;6.85;;;4.25;;
5416;SDS011;2731;50.754;12.990;2023-08-06T00:05:36;6.20;;;4.30;;
5416;SDS011;2731;50.754;12.990;2023-08-06T00:08:03;5.60;;;4.40;;
5416;SDS011;2731;50.754;12.990;2023-08-06T00:10:50;4.22;;;3.53;;
5416;SDS011;2731;50.754;12.990;2023-08-06T00:13:38;5.65;;;4.65;;
5416;SDS011;2731;50.754;12.990;2023-08-06T00:16:23;4.65;;;3.80;;
5416;SDS011;2731;50.754;12.990;2023-08-06T00:19:09;11.23;;;4.50;;
5416;SDS011;2731;50.754;12.990;2023-08-06T00:21:37;5.55;;;3.90;;
5416;SDS011;2731;50.754;12.990;2023-08-06T00:24:24;4.65;;;3.45;;
5416;SDS011;2731;50.754;12.990;2023-08-06T00:27:02;6.85;;;4.00;;
5416;SDS011;2731;50.754;12.990;2023-08-06T00:29:48;5.72;;;3.72;;
5416;SDS011;2731;50.754;12.990;2023-08-06T00:32:16;4.38;;;3.85;;
5416;SDS011;2731;50.754;12.990;2023-08-06T00:35:02;6.13;;;4.22;;
5416;SDS011;2731;50.754;12.990;2023-08-06T00:37:30;7.40;;;4.85;;
5416;SDS011;2731;50.754;12.990;2023-08-06T00:40:15;4.45;;;3.85;;
5416;SDS011;2731;50.754;12.990;2023-08-06T00:42:46;5.60;;;4.57;;
5416;SDS011;2731;50.754;12.990;2023-08-06T00:45:21;5.65;;;3.65;;
5416;SDS011;2731;50.754;12.990;2023-08-06T00:47:49;5.85;;;3.45;;
5416;SDS011;2731;50.754;12.990;2023-08-06T00:50:17;4.88;;;4.45;;
5416;SDS011;2731;50.754;12.990;2023-08-06T00:52:47;6.93;;;3.85;;
5416;SDS011;2731;50.754;12.990;2023-08-06T00:55:19;5.50;;;4.00;;
5416;SDS011;2731;50.754;12.990;2023-08-06T00:57:48;5.63;;;4.45;;
5416;SDS011;2731;50.754;12.990;2023-08-06T01:00:15;6.15;;;4.28;;
5416;SDS011;2731;50.754;12.990;2023-08-06T01:02:43;5.82;;;4.15;;
5416;SDS011;2731;50.754;12.990;2023-08-06T01:05:13;5.28;;;4.07;;
5416;SDS011;2731;50.754;12.990;2023-08-06T01:08:04;5.53;;;4.40;;
5416;SDS011;2731;50.754;12.990;2023-08-06T01:15:58;4.55;;;3.97;;
5416;SDS011;2731;50.754;12.990;2023-08-06T01:18:29;6.22;;;4.60;;
5416;SDS011;2731;50.754;12.990;2023-08-06T01:20:56;4.10;;;3.70;;
5416;SDS011;2731;50.754;12.990;2023-08-06T01:23:26;4.60;;;3.70;;
5416;SDS011;2731;50.754;12.990;2023-08-06T01:26:36;5.45;;;4.72;;
5416;SDS011;2731;50.754;12.990;2023-08-06T01:31:26;6.35;;;4.47;;
5416;SDS011;2731;50.754;12.990;2023-08-06T01:33:54;5.05;;;4.10;;
5416;SDS011;2731;50.754;12.990;2023-08-06T01:36:23;5.10;;;4.60;;
5416;SDS011;2731;50.754;12.990;2023-08-06T01:38:53;7.05;;;5.07;;
5416;SDS011;2731;50.754;12.990;2023-08-06T01:41:23;5.27;;;4.37;;
5416;SDS011;2731;50.754;12.990;2023-08-06T01:43:50;5.97;;;4.90;;
5416;SDS011;2731;50.754;12.990;2023-08-06T01:46:18;5.00;;;4.50;;
5416;SDS011;2731;50.754;12.990;2023-08-06T01:48:44;5.43;;;4.47;;
5416;SDS011;2731;50.754;12.990;2023-08-06T01:51:11;7.03;;;4.82;;
5416;SDS011;2731;50.754;12.990;2023-08-06T01:53:40;6.13;;;4.63;;
5416;SDS011;2731;50.754;12.990;2023-08-06T01:56:07;5.43;;;4.38;;
5416;SDS011;2731;50.754;12.990;2023-08-06T01:58:35;6.80;;;4.53;;
5416;SDS011;2731;50.754;12.990;2023-08-06T02:01:03;6.25;;;4.60;;
5416;SDS011;2731;50.754;12.990;2023-08-06T02:03:30;7.93;;;5.30;;
5416;SDS011;2731;50.754;12.990;2023-08-06T02:05:58;5.15;;;4.38;;
5416;SDS011;2731;50.754;12.990;2023-08-06T02:08:26;5.07;;;4.57;;
5416;SDS011;2731;50.754;12.990;2023-08-06T02:10:57;8.43;;;5.07;;
5416;SDS011;2731;50.754;12.990;2023-08-06T02:13:25;5.93;;;4.90;;
5416;SDS011;2731;50.754;12.990;2023-08-06T02:15:54;7.07;;;4.65;;
5416;SDS011;2731;50.754;12.990;2023-08-06T02:18:21;5.00;;;4.60;;
5416;SDS011;2731;50.754;12.990;2023-08-06T02:20:56;5.35;;;4.57;;
5416;SDS011;2731;50.754;12.990;2023-08-06T02:23:24;7.70;;;5.30;;
5416;SDS011;2731;50.754;12.990;2023-08-06T02:26:01;6.43;;;4.68;;
5416;SDS011;2731;50.754;12.990;2023-08-06T02:28:27;5.43;;;4.93;;
5416;SDS011;2731;50.754;12.990;2023-08-06T02:30:55;7.47;;;4.70;;
5416;SDS011;2731;50.754;12.990;2023-08-06T02:33:22;5.53;;;4.70;;
5416;SDS011;2731;50.754;12.990;2023-08-06T02:35:49;6.47;;;4.63;;
5416;SDS011;2731;50.754;12.990;2023-08-06T02:38:15;6.30;;;5.00;;
5416;SDS011;2731;50.754;12.990;2023-08-06T02:40:44;5.60;;;4.85;;
5416;SDS011;2731;50.754;12.990;2023-08-06T02:43:16;9.00;;;6.15;;
5416;SDS011;2731;50.754;12.990;2023-08-06T02:45:43;9.60;;;6.35;;
5416;SDS011;2731;50.754;12.990;2023-08-06T02:48:16;6.07;;;5.30;;
5416;SDS011;2731;50.754;12.990;2023-08-06T02:50:44;7.47;;;5.82;;
5416;SDS011;2731;50.754;12.990;2023-08-06T02:53:11;6.00;;;5.00;;
5416;SDS011;2731;50.754;12.990;2023-08-06T02:55:44;6.53;;;5.35;;
5416;SDS011;2731;50.754;12.990;2023-08-06T02:58:18;7.22;;;5.68;;
5416;SDS011;2731;50.754;12.990;2023-08-06T03:01:10;6.63;;;4.45;;
5416;SDS011;2731;50.754;12.990;2023-08-06T03:03:37;5.57;;;5.07;;
5416;SDS011;2731;50.754;12.990;2023-08-06T03:06:04;5.43;;;4.53;;
5416;SDS011;2731;50.754;12.990;2023-08-06T03:08:33;6.03;;;4.80;;
5416;SDS011;2731;50.754;12.990;2023-08-06T03:11:21;6.13;;;5.38;;
5416;SDS011;2731;50.754;12.990;2023-08-06T03:13:48;7.28;;;5.07;;
5416;SDS011;2731;50.754;12.990;2023-08-06T03:16:20;7.93;;;5.88;;
5416;SDS011;2731;50.754;12.990;2023-08-06T03:18:49;5.38;;;4.80;;
5416;SDS011;2731;50.754;12.990;2023-08-06T03:21:16;5.95;;;5.10;;
5416;SDS011;2731;50.754;12.990;2023-08-06T03:23:46;10.45;;;5.50;;
5416;SDS011;2731;50.754;12.990;2023-08-06T03:26:14;7.18;;;5.03;;
5416;SDS011;2731;50.754;12.990;2023-08-06T03:28:42;7.35;;;5.25;;
5416;SDS011;2731;50.754;12.990;2023-08-06T03:31:09;11.18;;;6.40;;
5416;SDS011;2731;50.754;12.990;2023-08-06T03:33:55;7.28;;;5.47;;
5416;SDS011;2731;50.754;12.990;2023-08-06T03:36:42;9.30;;;5.95;;
5416;SDS011;2731;50.754;12.990;2023-08-06T03:39:28;7.40;;;5.65;;
5416;SDS011;2731;50.754;12.990;2023-08-06T03:42:15;6.35;;;5.10;;
5416;SDS011;2731;50.754;12.990;2023-08-06T03:45:03;5.90;;;4.60;;
5416;SDS011;2731;50.754;12.990;2023-08-06T03:47:33;5.88;;;5.22;;
5416;SDS011;2731;50.754;12.990;2023-08-06T03:50:19;6.82;;;5.93;;
5416;SDS011;2731;50.754;12.990;2023-08-06T03:52:49;5.68;;;4.53;;
5416;SDS011;2731;50.754;12.990;2023-08-06T03:55:35;5.93;;;4.63;;
5416;SDS011;2731;50.754;12.990;2023-08-06T03:58:01;5.43;;;4.43;;
5416;SDS011;2731;50.754;12.990;2023-08-06T04:00:48;5.85;;;4.47;;
5416;SDS011;2731;50.754;12.990;2023-08-06T04:03:16;6.80;;;4.95;;
5416;SDS011;2731;50.754;12.990;2023-08-06T04:06:02;5.50;;;4.80;;
5416;SDS011;2731;50.754;12.990;2023-08-06T04:08:29;6.60;;;4.88;;
5416;SDS011;2731;50.754;12.990;2023-08-06T04:11:14;6.25;;;4.45;;
5416;SDS011;2731;50.754;12.990;2023-08-06T04:13:44;4.75;;;4.25;;
5416;SDS011;2731;50.754;12.990;2023-08-06T04:16:11;5.85;;;4.22;;
5416;SDS011;2731;50.754;12.990;2023-08-06T04:18:41;7.80;;;4.70;;
5416;SDS011;2731;50.754;12.990;2023-08-06T04:21:08;4.93;;;4.35;;
5416;SDS011;2731;50.754;12.990;2023-08-06T04:23:37;5.47;;;4.15;;
5416;SDS011;2731;50.754;12.990;2023-08-06T04:26:05;4.28;;;3.65;;
5416;SDS011;2731;50.754;12.990;2023-08-06T04:28:34;5.13;;;3.63;;
5416;SDS011;2731;50.754;12.990;2023-08-06T04:31:00;7.63;;;4.05;;
5416;SDS011;2731;50.754;12.990;2023-08-06T04:33:29;6.70;;;4.95;;
5416;SDS011;2731;50.754;12.990;2023-08-06T04:36:16;4.60;;;3.88;;
5416;SDS011;2731;50.754;12.990;2023-08-06T04:38:43;5.03;;;4.28;;
5416;SDS011;2731;50.754;12.990;2023-08-06T04:41:32;6.10;;;4.28;;
5416;SDS011;2731;50.754;12.990;2023-08-06T04:44:20;8.50;;;3.60;;
5416;SDS011;2731;50.754;12.990;2023-08-06T04:47:08;4.65;;;3.55;;
5416;SDS011;2731;50.754;12.990;2023-08-06T04:49:56;4.60;;;3.13;;
5416;SDS011;2731;50.754;12.990;2023-08-06T04:52:41;4.60;;;3.47;;
5416;SDS011;2731;50.754;12.990;2023-08-06T04:55:28;6.72;;;3.40;;
5416;SDS011;2731;50.754;12.990;2023-08-06T04:57:57;4.90;;;3.88;;
5416;SDS011;2731;50.754;12.990;2023-08-06T05:00:25;3.80;;;3.40;;
5416;SDS011;2731;50.754;12.990;2023-08-06T05:02:51;5.00;;;3.78;;
5416;SDS011;2731;50.754;12.990;2023-08-06T05:05:19;5.13;;;3.95;;
5416;SDS011;2731;50.754;12.990;2023-08-06T05:07:49;3.90;;;3.60;;
5416;SDS011;2731;50.754;12.990;2023-08-06T05:10:16;4.45;;;3.58;;
5416;SDS011;2731;50.754;12.990;2023-08-06T05:12:52;4.13;;;3.17;;
5416;SDS011;2731;50.754;12.990;2023-08-06T05:15:20;3.53;;;3.00;;
5416;SDS011;2731;50.754;12.990;2023-08-06T05:17:47;4.72;;;2.70;;
5416;SDS011;2731;50.754;12.990;2023-08-06T05:20:16;3.45;;;2.42;;
5416;SDS011;2731;50.754;12.990;2023-08-06T05:22:44;3.03;;;2.20;;
5416;SDS011;2731;50.754;12.990;2023-08-06T05:25:13;3.00;;;2.03;;
5416;SDS011;2731;50.754;12.990;2023-08-06T05:27:42;4.55;;;2.20;;
5416;SDS011;2731;50.754;12.990;2023-08-06T05:30:09;2.65;;;1.83;;
5416;SDS011;2731;50.754;12.990;2023-08-06T05:32:37;2.00;;;1.80;;
5416;SDS011;2731;50.754;12.990;2023-08-06T05:35:23;2.35;;;1.60;;
5416;SDS011;2731;50.754;12.990;2023-08-06T05:37:53;2.67;;;1.65;;
5416;SDS011;2731;50.754;12.990;2023-08-06T05:40:41;2.10;;;1.63;;
5416;SDS011;2731;50.754;12.990;2023-08-06T05:43:09;1.67;;;1.50;;
5416;SDS011;2731;50.754;12.990;2023-08-06T05:45:55;3.63;;;1.70;;
5416;SDS011;2731;50.754;12.990;2023-08-06T05:48:23;2.03;;;1.48;;
5416;SDS011;2731;50.754;12.990;2023-08-06T05:51:15;3.03;;;1.67;;
5416;SDS011;2731;50.754;12.990;2023-08-06T05:53:45;2.22;;;1.42;;
5416;SDS011;2731;50.754;12.990;2023-08-06T05:56:31;2.15;;;1.70;;
5416;SDS011;2731;50.754;12.990;2023-08-06T05:58:58;2.03;;;1.50;;
5416;SDS011;2731;50.754;12.990;2023-08-06T06:01:43;2.38;;;1.60;;
5416;SDS011;2731;50.754;12.990;2023-08-06T06:04:31;2.08;;;1.88;;
5416;SDS011;2731;50.754;12.990;2023-08-06T06:07:17;4.15;;;1.85;;
5416;SDS011;2731;50.754;12.990;2023-08-06T06:09:44;2.67;;;1.80;;
5416;SDS011;2731;50.754;12.990;2023-08-06T06:12:13;3.25;;;1.75;;
5416;SDS011;2731;50.754;12.990;2023-08-06T06:14:59;2.25;;;2.05;;
5416;SDS011;2731;50.754;12.990;2023-08-06T06:17:48;3.03;;;2.47;;
5416;SDS011;2731;50.754;12.990;2023-08-06T06:20:35;2.08;;;1.88;;
5416;SDS011;2731;50.754;12.990;2023-08-06T06:23:06;2.28;;;2.00;;
5416;SDS011;2731;50.754;12.990;2023-08-06T06:25:51;2.58;;;2.38;;
5416;SDS011;2731;50.754;12.990;2023-08-06T06:28:18;4.15;;;2.13;;
5416;SDS011;2731;50.754;12.990;2023-08-06T06:30:47;2.63;;;2.28;;
5416;SDS011;2731;50.754;12.990;2023-08-06T06:33:16;3.10;;;2.33;;
5416;SDS011;2731;50.754;12.990;2023-08-06T06:36:03;3.15;;;2.40;;
5416;SDS011;2731;50.754;12.990;2023-08-06T06:38:36;3.00;;;2.67;;
5416;SDS011;2731;50.754;12.990;2023-08-06T06:41:22;3.72;;;2.53;;
5416;SDS011;2731;50.754;12.990;2023-08-06T06:43:55;2.78;;;2.30;;
5416;SDS011;2731;50.754;12.990;2023-08-06T06:46:41;2.45;;;2.13;;
5416;SDS011;2731;50.754;12.990;2023-08-06T06:49:07;4.05;;;2.78;;
5416;SDS011;2731;50.754;12.990;2023-08-06T06:51:54;3.35;;;2.63;;
5416;SDS011;2731;50.754;12.990;2023-08-06T06:54:40;2.65;;;2.28;;
5416;SDS011;2731;50.754;12.990;2023-08-06T06:57:24;6.55;;;2.60;;
5416;SDS011;2731;50.754;12.990;2023-08-06T07:00:12;4.10;;;2.42;;
5416;SDS011;2731;50.754;12.990;2023-08-06T07:02:58;3.85;;;2.30;;
5416;SDS011;2731;50.754;12.990;2023-08-06T07:05:45;2.38;;;2.17;;
5416;SDS011;2731;50.754;12.990;2023-08-06T07:08:12;3.95;;;2.50;;
5416;SDS011;2731;50.754;12.990;2023-08-06T07:11:06;2.47;;;2.28;;
5416;SDS011;2731;50.754;12.990;2023-08-06T07:13:36;2.58;;;2.33;;
5416;SDS011;2731;50.754;12.990;2023-08-06T07:16:23;3.30;;;2.80;;
5416;SDS011;2731;50.754;12.990;2023-08-06T07:18:53;3.13;;;2.75;;
5416;SDS011;2731;50.754;12.990;2023-08-06T07:21:39;3.08;;;2.78;;
5416;SDS011;2731;50.754;12.990;2023-08-06T07:24:08;4.22;;;2.60;;
5416;SDS011;2731;50.754;12.990;2023-08-06T07:26:54;3.53;;;3.00;;
5416;SDS011;2731;50.754;12.990;2023-08-06T07:29:23;3.53;;;2.78;;
5416;SDS011;2731;50.754;12.990;2023-08-06T07:32:08;3.22;;;2.33;;
5416;SDS011;2731;50.754;12.990;2023-08-06T07:34:54;4.53;;;2.35;;
5416;SDS011;2731;50.754;12.990;2023-08-06T07:37:44;2.88;;;2.55;;
5416;SDS011;2731;50.754;12.990;2023-08-06T07:40:14;4.28;;;2.60;;
5416;SDS011;2731;50.754;12.990;2023-08-06T07:43:01;4.30;;;2.70;;
5416;SDS011;2731;50.754;12.990;2023-08-06T07:45:33;3.15;;;2.40;;
5416;SDS011;2731;50.754;12.990;2023-08-06T07:48:11;3.20;;;2.70;;
5416;SDS011;2731;50.754;12.990;2023-08-06T07:50:57;3.03;;;2.60;;
5416;SDS011;2731;50.754;12.990;2023-08-06T07:53:26;6.88;;;3.25;;
5416;SDS011;2731;50.754;12.990;2023-08-06T07:56:14;2.80;;;2.60;;
5416;SDS011;2731;50.754;12.990;2023-08-06T07:58:45;2.97;;;2.67;;
5416;SDS011;2731;50.754;12.990;2023-08-06T08:01:35;2.78;;;2.42;;
5416;SDS011;2731;50.754;12.990;2023-08-06T08:04:05;3.75;;;2.78;;
5416;SDS011;2731;50.754;12.990;2023-08-06T08:06:50;3.47;;;2.50;;
5416;SDS011;2731;50.754;12.990;2023-08-06T08:09:17;4.10;;;3.22;;
5416;SDS011;2731;50.754;12.990;2023-08-06T08:12:05;2.47;;;2.28;;
5416;SDS011;2731;50.754;12.990;2023-08-06T08:14:35;2.78;;;2.35;;
5416;SDS011;2731;50.754;12.990;2023-08-06T08:17:02;3.45;;;2.38;;
5416;SDS011;2731;50.754;12.990;2023-08-06T08:19:41;2.47;;;2.28;;
5416;SDS011;2731;50.754;12.990;2023-08-06T08:22:09;2.60;;;1.90;;
5416;SDS011;2731;50.754;12.990;2023-08-06T08:24:38;2.65;;;2.42;;
5416;SDS011;2731;50.754;12.990;2023-08-06T08:27:05;2.47;;;2.28;;
5416;SDS011;2731;50.754;12.990;2023-08-06T08:29:35;3.40;;;2.38;;
5416;SDS011;2731;50.754;12.990;2023-08-06T08:32:01;2.55;;;2.33;;
5416;SDS011;2731;50.754;12.990;2023-08-06T08:34:27;5.07;;;2.78;;
5416;SDS011;2731;50.754;12.990;2023-08-06T08:36:56;3.50;;;2.80;;
5416;SDS011;2731;50.754;12.990;2023-08-06T08:39:30;3.67;;;2.75;;
5416;SDS011;2731;50.754;12.990;2023-08-06T08:41:58;2.60;;;2.30;;
5416;SDS011;2731;50.754;12.990;2023-08-06T08:44:27;2.78;;;2.45;;
5416;SDS011;2731;50.754;12.990;2023-08-06T08:46:57;3.10;;;2.80;;
5416;SDS011;2731;50.754;12.990;2023-08-06T08:49:26;3.42;;;2.40;;
5416;SDS011;2731;50.754;12.990;2023-08-06T08:51:53;3.35;;;3.00;;
5416;SDS011;2731;50.754;12.990;2023-08-06T08:54:22;3.63;;;2.70;;
5416;SDS011;2731;50.754;12.990;2023-08-06T08:56:48;3.15;;;2.85;;
5416;SDS011;2731;50.754;12.990;2023-08-06T08:59:17;2.80;;;2.35;;
5416;SDS011;2731;50.754;12.990;2023-08-06T09:01:46;3.05;;;2.75;;
5416;SDS011;2731;50.754;12.990;2023-08-06T09:04:19;5.80;;;2.72;;
5416;SDS011;2731;50.754;12.990;2023-08-06T09:06:46;3.92;;;2.42;;
5416;SDS011;2731;50.754;12.990;2023-08-06T09:09:25;3.05;;;2.58;;
5416;SDS011;2731;50.754;12.990;2023-08-06T09:12:16;2.55;;;2.35;;
5416;SDS011;2731;50.754;12.990;2023-08-06T09:15:04;2.60;;;2.40;;
5416;SDS011;2731;50.754;12.990;2023-08-06T09:17:57;5.30;;;3.20;;
5416;SDS011;2731;50.754;12.990;2023-08-06T09:20:24;3.40;;;3.00;;
5416;SDS011;2731;50.754;12.990;2023-08-06T09:23:10;3.58;;;3.15;;
5416;SDS011;2731;50.754;12.990;2023-08-06T09:26:01;2.92;;;2.53;;
5416;SDS011;2731;50.754;12.990;2023-08-06T09:28:42;3.30;;;2.70;;
5416;SDS011;2731;50.754;12.990;2023-08-06T09:31:45;3.70;;;2.75;;
5416;SDS011;2731;50.754;12.990;2023-08-06T09:34:16;4.63;;;2.60;;
5416;SDS011;2731;50.754;12.990;2023-08-06T09:37:02;3.10;;;2.80;;
5416;SDS011;2731;50.754;12.990;2023-08-06T09:39:31;3.42;;;2.45;;
5416;SDS011;2731;50.754;12.990;2023-08-06T09:42:16;4.70;;;2.72;;
5416;SDS011;2731;50.754;12.990;2023-08-06T09:45:07;5.05;;;2.88;;
5416;SDS011;2731;50.754;12.990;2023-08-06T09:47:57;2.70;;;2.17;;
5416;SDS011;2731;50.754;12.990;2023-08-06T09:50:47;3.40;;;2.42;;
5416;SDS011;2731;50.754;12.990;2023-08-06T09:53:29;3.05;;;1.90;;
5416;SDS011;2731;50.754;12.990;2023-08-06T09:56:15;2.88;;;2.35;;
5416;SDS011;2731;50.754;12.990;2023-08-06T09:58:44;3.25;;;2.22;;
5416;SDS011;2731;50.754;12.990;2023-08-06T10:01:28;3.33;;;2.13;;
5416;SDS011;2731;50.754;12.990;2023-08-06T10:03:57;2.85;;;2.28;;
5416;SDS011;2731;50.754;12.990;2023-08-06T10:06:46;2.60;;;2.38;;
5416;SDS011;2731;50.754;12.990;2023-08-06T10:12:12;4.25;;;2.50;;
5416;SDS011;2731;50.754;12.990;2023-08-06T10:15:12;3.63;;;2.45;;
5416;SDS011;2731;50.754;12.990;2023-08-06T10:17:59;5.38;;;2.92;;
5416;SDS011;2731;50.754;12.990;2023-08-06T10:20:47;3.53;;;2.42;;
5416;SDS011;2731;50.754;12.990;2023-08-06T10:23:32;4.30;;;2.50;;
5416;SDS011;2731;50.754;12.990;2023-08-06T10:26:20;6.22;;;2.50;;
5416;SDS011;2731;50.754;12.990;2023-08-06T10:28:46;4.13;;;2.42;;
5416;SDS011;2731;50.754;12.990;2023-08-06T10:34:19;3.67;;;2.33;;
5416;SDS011;2731;50.754;12.990;2023-08-06T10:37:03;3.42;;;2.03;;
5416;SDS011;2731;50.754;12.990;2023-08-06T10:39:31;3.17;;;1.83;;
5416;SDS011;2731;50.754;12.990;2023-08-06T10:42:22;2.67;;;1.90;;
5416;SDS011;2731;50.754;12.990;2023-08-06T10:45:18;2.70;;;2.28;;
5416;SDS011;2731;50.754;12.990;2023-08-06T10:48:04;4.78;;;2.70;;
5416;SDS011;2731;50.754;12.990;2023-08-06T10:50:34;4.30;;;2.20;;
5416;SDS011;2731;50.754;12.990;2023-08-06T10:53:20;2.50;;;1.90;;
5416;SDS011;2731;50.754;12.990;2023-08-06T10:56:13;3.60;;;1.73;;
5416;SDS011;2731;50.754;12.990;2023-08-06T10:58:41;2.50;;;2.17;;
5416;SDS011;2731;50.754;12.990;2023-08-06T11:01:29;2.47;;;1.95;;
5416;SDS011;2731;50.754;12.990;2023-08-06T11:03:55;2.70;;;2.05;;
5416;SDS011;2731;50.754;12.990;2023-08-06T11:06:42;4.78;;;2.17;;
5416;SDS011;2731;50.754;12.990;2023-08-06T11:09:09;2.83;;;1.83;;
5416;SDS011;2731;50.754;12.990;2023-08-06T11:11:56;3.60;;;2.13;;
5416;SDS011;2731;50.754;12.990;2023-08-06T11:14:25;2.50;;;2.05;;
5416;SDS011;2731;50.754;12.990;2023-08-06T11:17:11;2.60;;;2.33;;
5416;SDS011;2731;50.754;12.990;2023-08-06T11:19:40;6.47;;;2.40;;
5416;SDS011;2731;50.754;12.990;2023-08-06T11:22:30;4.20;;;1.80;;
5416;SDS011;2731;50.754;12.990;2023-08-06T11:25:19;4.15;;;2.47;;
5416;SDS011;2731;50.754;12.990;2023-08-06T11:28:06;4.57;;;2.28;;
5416;SDS011;2731;50.754;12.990;2023-08-06T11:30:53;3.28;;;2.08;;
5416;SDS011;2731;50.754;12.990;2023-08-06T11:33:42;2.40;;;1.90;;
5416;SDS011;2731;50.754;12.990;2023-08-06T11:38:58;4.68;;;2.35;;
5416;SDS011;2731;50.754;12.990;2023-08-06T11:41:45;6.13;;;2.38;;
5416;SDS011;2731;50.754;12.990;2023-08-06T11:44:23;3.33;;;2.13;;
5416;SDS011;2731;50.754;12.990;2023-08-06T11:47:14;2.70;;;2.20;;
5416;SDS011;2731;50.754;12.990;2023-08-06T11:49:47;3.20;;;2.10;;
5416;SDS011;2731;50.754;12.990;2023-08-06T11:52:44;2.88;;;1.52;;
5416;SDS011;2731;50.754;12.990;2023-08-06T11:55:31;2.50;;;2.28;;
5416;SDS011;2731;50.754;12.990;2023-08-06T11:58:38;5.60;;;2.17;;
5416;SDS011;2731;50.754;12.990;2023-08-06T12:01:26;2.90;;;2.20;;
5416;SDS011;2731;50.754;12.990;2023-08-06T12:03:58;3.40;;;2.10;;
5416;SDS011;2731;50.754;12.990;2023-08-06T12:06:45;2.67;;;1.73;;
5416;SDS011;2731;50.754;12.990;2023-08-06T12:09:13;4.95;;;2.10;;
5416;SDS011;2731;50.754;12.990;2023-08-06T12:12:00;3.25;;;2.42;;
5416;SDS011;2731;50.754;12.990;2023-08-06T12:14:30;3.00;;;2.10;;
5416;SDS011;2731;50.754;12.990;2023-08-06T12:17:17;5.88;;;2.28;;
5416;SDS011;2731;50.754;12.990;2023-08-06T12:19:48;4.68;;;2.25;;
5416;SDS011;2731;50.754;12.990;2023-08-06T12:22:36;5.20;;;1.98;;
5416;SDS011;2731;50.754;12.990;2023-08-06T12:25:33;1.88;;;1.60;;
5416;SDS011;2731;50.754;12.990;2023-08-06T12:28:18;4.63;;;1.95;;
5416;SDS011;2731;50.754;12.990;2023-08-06T12:31:04;3.15;;;1.70;;
5416;SDS011;2731;50.754;12.990;2023-08-06T12:33:50;3.67;;;1.65;;
5416;SDS011;2731;50.754;12.990;2023-08-06T12:36:35;2.72;;;1.83;;
5416;SDS011;2731;50.754;12.990;2023-08-06T12:39:05;5.10;;;1.42;;
5416;SDS011;2731;50.754;12.990;2023-08-06T12:41:50;2.20;;;1.55;;
5416;SDS011;2731;50.754;12.990;2023-08-06T12:44:17;1.40;;;1.30;;
5416;SDS011;2731;50.754;12.990;2023-08-06T12:47:02;1.95;;;1.50;;
5416;SDS011;2731;50.754;12.990;2023-08-06T12:49:29;2.30;;;1.70;;
5416;SDS011;2731;50.754;12.990;2023-08-06T12:52:18;2.95;;;2.03;;
5416;SDS011;2731;50.754;12.990;2023-08-06T12:54:47;2.22;;;1.50;;
5416;SDS011;2731;50.754;12.990;2023-08-06T12:57:32;2.30;;;1.80;;
5416;SDS011;2731;50.754;12.990;2023-08-06T13:00:39;4.68;;;2.00;;
5416;SDS011;2731;50.754;12.990;2023-08-06T13:03:06;1.80;;;1.50;;
5416;SDS011;2731;50.754;12.990;2023-08-06T13:05:55;1.95;;;1.55;;
5416;SDS011;2731;50.754;12.990;2023-08-06T13:08:52;5.15;;;1.60;;
5416;SDS011;2731;50.754;12.990;2023-08-06T13:11:38;4.13;;;1.33;;
5416;SDS011;2731;50.754;12.990;2023-08-06T13:14:08;2.08;;;1.33;;
5416;SDS011;2731;50.754;12.990;2023-08-06T13:16:56;2.17;;;1.40;;
5416;SDS011;2731;50.754;12.990;2023-08-06T13:19:25;3.08;;;1.50;;
5416;SDS011;2731;50.754;12.990;2023-08-06T13:22:10;2.35;;;1.50;;
5416;SDS011;2731;50.754;12.990;2023-08-06T13:24:39;3.25;;;1.80;;
5416;SDS011;2731;50.754;12.990;2023-08-06T13:27:25;2.85;;;1.98;;
5416;SDS011;2731;50.754;12.990;2023-08-06T13:29:53;2.50;;;1.50;;
5416;SDS011;2731;50.754;12.990;2023-08-06T13:32:38;2.13;;;1.35;;
5416;SDS011;2731;50.754;12.990;2023-08-06T13:35:06;1.98;;;1.55;;
5416;SDS011;2731;50.754;12.990;2023-08-06T13:37:53;2.55;;;1.42;;
5416;SDS011;2731;50.754;12.990;2023-08-06T13:40:41;2.70;;;1.80;;
5416;SDS011;2731;50.754;12.990;2023-08-06T13:43:31;2.05;;;1.70;;
5416;SDS011;2731;50.754;12.990;2023-08-06T13:46:19;1.75;;;1.38;;
5416;SDS011;2731;50.754;12.990;2023-08-06T13:48:59;1.80;;;1.38;;
5416;SDS011;2731;50.754;12.990;2023-08-06T13:51:49;2.25;;;1.33;;
5416;SDS011;2731;50.754;12.990;2023-08-06T13:54:18;2.30;;;1.38;;
5416;SDS011;2731;50.754;12.990;2023-08-06T13:57:04;3.38;;;1.35;;
5416;SDS011;2731;50.754;12.990;2023-08-06T13:59:32;2.70;;;1.80;;
5416;SDS011;2731;50.754;12.990;2023-08-06T14:02:20;2.13;;;1.48;;
5416;SDS011;2731;50.754;12.990;2023-08-06T14:04:47;1.92;;;1.50;;
5416;SDS011;2731;50.754;12.990;2023-08-06T14:07:41;2.35;;;1.50;;
5416;SDS011;2731;50.754;12.990;2023-08-06T14:10:08;1.55;;;1.20;;
5416;SDS011;2731;50.754;12.990;2023-08-06T14:12:55;2.05;;;1.48;;
5416;SDS011;2731;50.754;12.990;2023-08-06T14:15:43;2.63;;;1.30;;
5416;SDS011;2731;50.754;12.990;2023-08-06T14:18:41;2.25;;;1.85;;
5416;SDS011;2731;50.754;12.990;2023-08-06T14:21:27;2.22;;;1.77;;
5416;SDS011;2731;50.754;12.990;2023-08-06T14:24:07;2.42;;;1.40;;
5416;SDS011;2731;50.754;12.990;2023-08-06T14:26:54;1.98;;;1.75;;
5416;SDS011;2731;50.754;12.990;2023-08-06T14:29:20;2.75;;;2.22;;
5416;SDS011;2731;50.754;12.990;2023-08-06T14:32:05;2.15;;;1.27;;
5416;SDS011;2731;50.754;12.990;2023-08-06T14:34:33;2.55;;;2.13;;
5416;SDS011;2731;50.754;12.990;2023-08-06T14:37:21;1.88;;;1.40;;
5416;SDS011;2731;50.754;12.990;2023-08-06T14:39:51;2.53;;;1.77;;
5416;SDS011;2731;50.754;12.990;2023-08-06T14:42:37;2.90;;;1.73;;
5416;SDS011;2731;50.754;12.990;2023-08-06T14:45:04;2.67;;;1.42;;
5416;SDS011;2731;50.754;12.990;2023-08-06T14:47:48;3.38;;;1.63;;
5416;SDS011;2731;50.754;12.990;2023-08-06T14:50:17;1.98;;;1.15;;
5416;SDS011;2731;50.754;12.990;2023-08-06T14:53:04;1.85;;;1.30;;
5416;SDS011;2731;50.754;12.990;2023-08-06T14:55:51;5.05;;;1.30;;
5416;SDS011;2731;50.754;12.990;2023-08-06T14:58:37;1.52;;;1.05;;
5416;SDS011;2731;50.754;12.990;2023-08-06T15:01:24;1.20;;;0.95;;
5416;SDS011;2731;50.754;12.990;2023-08-06T15:04:10;3.40;;;1.20;;
5416;SDS011;2731;50.754;12.990;2023-08-06T15:06:55;1.38;;;0.82;;
5416;SDS011;2731;50.754;12.990;2023-08-06T15:09:22;1.15;;;0.75;;
5416;SDS011;2731;50.754;12.990;2023-08-06T15:12:08;1.83;;;1.20;;
5416;SDS011;2731;50.754;12.990;2023-08-06T15:14:36;1.15;;;1.05;;
5416;SDS011;2731;50.754;12.990;2023-08-06T15:17:23;1.60;;;1.00;;
5416;SDS011;2731;50.754;12.990;2023-08-06T15:19:51;1.60;;;0.80;;
5416;SDS011;2731;50.754;12.990;2023-08-06T15:22:37;1.15;;;1.00;;
5416;SDS011;2731;50.754;12.990;2023-08-06T15:25:07;2.13;;;1.23;;
5416;SDS011;2731;50.754;12.990;2023-08-06T15:27:53;1.48;;;1.10;;
5416;SDS011;2731;50.754;12.990;2023-08-06T15:30:21;2.47;;;1.23;;
5416;SDS011;2731;50.754;12.990;2023-08-06T15:33:09;1.50;;;1.00;;
5416;SDS011;2731;50.754;12.990;2023-08-06T15:35:57;1.60;;;1.25;;
5416;SDS011;2731;50.754;12.990;2023-08-06T15:38:45;1.58;;;0.88;;
5416;SDS011;2731;50.754;12.990;2023-08-06T15:41:13;1.73;;;1.20;;
5416;SDS011;2731;50.754;12.990;2023-08-06T15:43:42;1.13;;;0.98;;
5416;SDS011;2731;50.754;12.990;2023-08-06T15:46:11;3.90;;;1.20;;
5416;SDS011;2731;50.754;12.990;2023-08-06T15:48:39;1.73;;;1.23;;
5416;SDS011;2731;50.754;12.990;2023-08-06T15:51:07;2.63;;;1.17;;
5416;SDS011;2731;50.754;12.990;2023-08-06T15:53:34;1.58;;;1.10;;
5416;SDS011;2731;50.754;12.990;2023-08-06T15:56:06;3.00;;;0.98;;
5416;SDS011;2731;50.754;12.990;2023-08-06T15:58:33;4.05;;;1.30;;
5416;SDS011;2731;50.754;12.990;2023-08-06T16:01:02;1.75;;;1.00;;
5416;SDS011;2731;50.754;12.990;2023-08-06T16:03:30;2.00;;;1.23;;
5416;SDS011;2731;50.754;12.990;2023-08-06T16:05:58;3.22;;;1.23;;
5416;SDS011;2731;50.754;12.990;2023-08-06T16:08:25;3.08;;;1.38;;
5416;SDS011;2731;50.754;12.990;2023-08-06T16:10:54;1.92;;;1.20;;
5416;SDS011;2731;50.754;12.990;2023-08-06T16:13:21;1.33;;;1.13;;
5416;SDS011;2731;50.754;12.990;2023-08-06T16:15:48;2.95;;;1.27;;